Time;durP1;ratioP1;P1;durP2;ratioP2;P2;SDS_P1;SDS_P2;PMS_P1;PMS_P2;Temp;Humidity;BMP_temperature;BMP_pressure;BME280_temperature;BME280_humidity;BME280_pressure;Samples;Min_cycle;Max_cycle;Signal;HPM_P1;HPM_P2
2024/01/27 00:00:25;;;;;;;;;;;17.60;45.20;;;;;;5072038;28;19924;-68
2024/01/27 00:02:51;;;;;;;;;;;17.60;45.20;;;;;;5104416;28;19928;-68
2024/01/27 00:05:17;;;;;;;;;;;17.60;45.20;;;;;;5104806;28;20280;-68
2024/01/27 00:07:42;;;;;;;;;;;17.60;45.10;;;;;;5104382;28;19921;-68
2024/01/27 00:10:08;;;;;;;;;;;17.60;45.20;;;;;;5104262;28;20402;-68
2024/01/27 00:12:33;;;;;;;;;;;17.60;45.10;;;;;;5071844;28;20368;-68
2024/01/27 00:14:59;;;;;;;;;;;17.60;45.10;;;;;;5104417;28;19920;-68
2024/01/27 00:17:26;;;;;;;;;;;17.60;45.10;;;;;;5104416;28;20023;-68
2024/01/27 00:19:51;;;;;;;;;;;17.50;45.10;;;;;;5074646;28;19982;-68
2024/01/27 00:22:17;;;;;;;;;;;17.50;45.10;;;;;;5075632;28;20363;-68
2024/01/27 00:24:43;;;;;;;;;;;17.50;45.10;;;;;;5108891;28;19970;-68
2024/01/27 00:27:12;;;;;;;;;;;17.50;45.10;;;;;;5108045;28;19956;-68
2024/01/27 00:29:46;;;;;;;;;;;17.50;45.10;;;;;;5075473;28;20019;-68
2024/01/27 00:32:11;;;;;;;;;;;17.40;45.00;;;;;;5107912;28;19959;-70
2024/01/27 00:34:37;;;;;;;;;;;17.50;45.10;;;;;;5108536;28;20034;-68
2024/01/27 00:37:02;;;;;;;;;;;17.50;45.10;;;;;;5074141;28;20474;-68
2024/01/27 00:39:28;;;;;;;;;;;17.50;45.10;;;;;;5108287;28;19947;-68
2024/01/27 00:41:55;;;;;;;;;;;17.50;45.10;;;;;;5108254;28;19943;-68
2024/01/27 00:44:20;;;;;;;;;;;17.50;45.10;;;;;;5108242;28;19921;-68
2024/01/27 00:46:46;;;;;;;;;;;17.50;45.10;;;;;;5108284;28;19928;-68
2024/01/27 00:49:12;;;;;;;;;;;17.50;45.10;;;;;;5106898;28;19928;-69
2024/01/27 00:51:37;;;;;;;;;;;17.50;45.10;;;;;;5075172;28;19943;-68
2024/01/27 00:54:03;;;;;;;;;;;17.40;45.10;;;;;;5075027;28;20299;-69
2024/01/27 00:56:28;;;;;;;;;;;17.40;45.10;;;;;;5074880;28;20394;-68
2024/01/27 00:58:54;;;;;;;;;;;17.40;45.10;;;;;;5075152;28;20158;-68
2024/01/27 01:01:19;;;;;;;;;;;17.40;45.20;;;;;;5074846;28;19920;-68
2024/01/27 01:03:45;;;;;;;;;;;17.40;45.20;;;;;;5107829;28;19924;-68
2024/01/27 01:06:11;;;;;;;;;;;17.40;45.20;;;;;;5107789;28;20384;-68
2024/01/27 01:08:36;;;;;;;;;;;17.40;45.20;;;;;;5107482;28;19991;-68
2024/01/27 01:11:02;;;;;;;;;;;17.50;45.20;;;;;;5107285;28;20003;-69
2024/01/27 01:13:27;;;;;;;;;;;17.40;45.10;;;;;;5074716;28;19971;-68
2024/01/27 01:15:55;;;;;;;;;;;17.40;45.20;;;;;;5074738;28;20334;-67
2024/01/27 01:18:21;;;;;;;;;;;17.40;45.20;;;;;;5107726;28;19920;-67
2024/01/27 01:20:46;;;;;;;;;;;17.40;45.20;;;;;;5073380;28;20276;-67
2024/01/27 01:23:12;;;;;;;;;;;17.30;45.20;;;;;;5074682;28;19920;-67
2024/01/27 01:25:37;;;;;;;;;;;17.30;45.20;;;;;;5074480;28;19920;-68
2024/01/27 01:28:03;;;;;;;;;;;17.30;45.20;;;;;;5106909;28;19930;-70
2024/01/27 01:30:29;;;;;;;;;;;17.30;45.20;;;;;;5105859;28;19935;-69
2024/01/27 01:32:54;;;;;;;;;;;17.30;45.20;;;;;;5074550;28;19927;-68
2024/01/27 01:35:20;;;;;;;;;;;17.40;45.20;;;;;;5074789;28;19920;-70
2024/01/27 01:37:47;;;;;;;;;;;17.30;45.20;;;;;;5074525;28;19920;-67
2024/01/27 01:40:15;;;;;;;;;;;17.20;45.10;;;;;;5074120;28;19920;-67
2024/01/27 01:42:40;;;;;;;;;;;17.30;45.20;;;;;;5073044;28;20413;-68
2024/01/27 01:45:06;;;;;;;;;;;17.30;45.20;;;;;;5073023;28;20007;-68
2024/01/27 01:47:33;;;;;;;;;;;17.30;45.20;;;;;;5073023;28;19964;-68
2024/01/27 01:49:59;;;;;;;;;;;17.30;45.20;;;;;;5072769;28;19933;-69
2024/01/27 01:52:25;;;;;;;;;;;17.30;45.20;;;;;;5106941;28;20445;-69
2024/01/27 01:54:50;;;;;;;;;;;17.30;45.20;;;;;;5106508;28;19966;-67
2024/01/27 01:57:16;;;;;;;;;;;17.20;45.10;;;;;;5073738;28;19973;-67
2024/01/27 01:59:42;;;;;;;;;;;17.20;45.10;;;;;;5106821;28;20031;-68
2024/01/27 02:02:08;;;;;;;;;;;17.30;45.20;;;;;;5106527;28;19921;-68
2024/01/27 02:04:42;;;;;;;;;;;17.20;45.20;;;;;;5073944;28;20338;-70
2024/01/27 02:07:10;;;;;;;;;;;17.20;45.10;;;;;;5073833;28;19960;-67
2024/01/27 02:09:39;;;;;;;;;;;17.20;45.10;;;;;;5106079;28;19966;-67
2024/01/27 02:12:04;;;;;;;;;;;17.20;45.10;;;;;;5106499;28;20275;-67
2024/01/27 02:14:30;;;;;;;;;;;17.20;45.10;;;;;;5073857;28;19921;-71
2024/01/27 02:16:56;;;;;;;;;;;17.20;45.10;;;;;;5073569;28;19928;-68
2024/01/27 02:19:21;;;;;;;;;;;17.20;45.10;;;;;;5073830;28;19920;-67
2024/01/27 02:21:47;;;;;;;;;;;17.20;45.10;;;;;;5073282;28;20018;-68
2024/01/27 02:24:12;;;;;;;;;;;17.20;45.20;;;;;;5106357;28;20011;-70
2024/01/27 02:26:38;;;;;;;;;;;17.20;45.20;;;;;;5073287;28;19924;-67
2024/01/27 02:29:03;;;;;;;;;;;17.20;45.10;;;;;;5105352;28;19925;-70
2024/01/27 02:31:29;;;;;;;;;;;17.20;45.20;;;;;;5073141;28;19935;-68
2024/01/27 02:33:55;;;;;;;;;;;17.20;45.20;;;;;;5073383;28;19920;-67
2024/01/27 02:36:20;;;;;;;;;;;17.20;45.20;;;;;;5073236;28;19924;-67
2024/01/27 02:38:46;;;;;;;;;;;17.10;45.10;;;;;;5073323;28;19927;-67
2024/01/27 02:41:11;;;;;;;;;;;17.10;45.10;;;;;;5105268;28;19920;-67
2024/01/27 02:43:37;;;;;;;;;;;17.10;45.10;;;;;;5071917;28;19920;-68
2024/01/27 02:46:04;;;;;;;;;;;17.20;45.20;;;;;;5088513;28;19927;-67
2024/01/27 02:48:29;;;;;;;;;;;17.10;45.10;;;;;;5071837;28;20379;-68
2024/01/27 02:50:55;;;;;;;;;;;17.10;45.10;;;;;;5071535;28;19928;-67
2024/01/27 02:53:20;;;;;;;;;;;17.10;45.10;;;;;;5072862;28;20291;-67
2024/01/27 02:55:46;;;;;;;;;;;17.10;45.10;;;;;;5105557;28;19921;-67
2024/01/27 02:58:12;;;;;;;;;;;17.10;45.10;;;;;;5071490;28;19921;-67
2024/01/27 03:00:40;;;;;;;;;;;17.10;45.20;;;;;;5072889;28;20402;-69
2024/01/27 03:03:06;;;;;;;;;;;17.10;45.20;;;;;;5072694;28;20445;-69
2024/01/27 03:05:32;;;;;;;;;;;17.00;45.10;;;;;;5072772;28;19920;-68
2024/01/27 03:07:57;;;;;;;;;;;17.00;45.10;;;;;;5105452;28;19920;-67
2024/01/27 03:10:23;;;;;;;;;;;17.00;45.10;;;;;;5072497;28;19920;-67
2024/01/27 03:12:48;;;;;;;;;;;17.00;45.10;;;;;;5072407;28;19935;-67
2024/01/27 03:15:14;;;;;;;;;;;17.00;45.10;;;;;;5071525;28;20321;-67
2024/01/27 03:17:39;;;;;;;;;;;17.00;45.10;;;;;;5070964;28;20438;-67
2024/01/27 03:20:05;;;;;;;;;;;17.00;45.10;;;;;;5072654;28;19920;-67
2024/01/27 03:22:33;;;;;;;;;;;17.10;45.10;;;;;;5104781;28;19921;-67
2024/01/27 03:24:59;;;;;;;;;;;17.00;45.10;;;;;;5072312;28;19927;-67
2024/01/27 03:27:24;;;;;;;;;;;17.00;45.10;;;;;;5070205;28;19972;-67
2024/01/27 03:29:50;;;;;;;;;;;17.00;45.10;;;;;;5104555;28;19954;-67
2024/01/27 03:32:15;;;;;;;;;;;17.00;45.00;;;;;;5105084;28;19920;-67
2024/01/27 03:34:43;;;;;;;;;;;17.00;45.00;;;;;;5072182;28;19920;-68
2024/01/27 03:37:09;;;;;;;;;;;17.00;45.10;;;;;;5072252;28;19924;-67
2024/01/27 03:39:34;;;;;;;;;;;16.90;45.10;;;;;;5070968;28;20402;-67
2024/01/27 03:42:00;;;;;;;;;;;17.00;45.10;;;;;;5072328;28;19929;-67
2024/01/27 03:44:25;;;;;;;;;;;16.90;45.10;;;;;;5104507;28;19920;-67
2024/01/27 03:46:51;;;;;;;;;;;16.90;45.10;;;;;;5104602;28;19920;-67
2024/01/27 03:49:17;;;;;;;;;;;16.90;45.00;;;;;;5071838;28;19920;-67
2024/01/27 03:51:42;;;;;;;;;;;16.90;45.00;;;;;;5071945;28;19921;-67
2024/01/27 03:54:08;;;;;;;;;;;17.00;45.10;;;;;;5071849;28;19928;-68
2024/01/27 03:56:33;;;;;;;;;;;16.90;45.10;;;;;;5070654;28;19920;-68
2024/01/27 03:58:59;;;;;;;;;;;16.90;45.10;;;;;;5104990;28;19920;-68
2024/01/27 04:01:24;;;;;;;;;;;16.90;45.00;;;;;;5070566;28;19920;-67
2024/01/27 04:03:50;;;;;;;;;;;16.90;45.00;;;;;;5104641;28;19927;-67
2024/01/27 04:06:15;;;;;;;;;;;16.90;44.90;;;;;;5072160;28;19928;-67
2024/01/27 04:08:44;;;;;;;;;;;16.90;45.00;;;;;;5071811;28;19920;-67
2024/01/27 04:11:18;;;;;;;;;;;16.90;45.00;;;;;;5104174;28;19973;-67
2024/01/27 04:13:43;;;;;;;;;;;16.90;45.00;;;;;;5104699;28;19924;-67
2024/01/27 04:16:09;;;;;;;;;;;16.90;44.90;;;;;;5104642;28;20090;-67
2024/01/27 04:18:34;;;;;;;;;;;16.90;44.90;;;;;;5072048;28;19920;-67
2024/01/27 04:21:00;;;;;;;;;;;16.90;44.90;;;;;;5071798;28;19970;-67
2024/01/27 04:23:26;;;;;;;;;;;16.90;45.00;;;;;;5104062;28;19921;-67
2024/01/27 04:25:51;;;;;;;;;;;16.80;45.00;;;;;;5104710;28;19920;-68
2024/01/27 04:28:17;;;;;;;;;;;16.80;45.00;;;;;;5070061;28;19924;-67
2024/01/27 04:30:42;;;;;;;;;;;16.80;45.00;;;;;;5103849;28;19928;-68
2024/01/27 04:33:08;;;;;;;;;;;16.80;45.00;;;;;;5072250;28;19924;-68
2024/01/27 04:35:34;;;;;;;;;;;16.80;45.00;;;;;;5072048;28;19920;-67
2024/01/27 04:38:00;;;;;;;;;;;16.80;45.00;;;;;;5071560;28;19920;-67
2024/01/27 04:40:25;;;;;;;;;;;16.80;45.00;;;;;;5070684;28;19925;-67
2024/01/27 04:42:51;;;;;;;;;;;16.80;45.00;;;;;;5104296;28;19920;-68
2024/01/27 04:45:16;;;;;;;;;;;16.80;45.00;;;;;;5071520;28;19993;-67
2024/01/27 04:47:42;;;;;;;;;;;16.70;45.00;;;;;;5104036;28;20386;-69
2024/01/27 04:50:07;;;;;;;;;;;16.80;45.00;;;;;;5071258;28;20019;-67
2024/01/27 04:52:33;;;;;;;;;;;16.80;45.10;;;;;;5103887;28;19920;-69
2024/01/27 04:54:59;;;;;;;;;;;16.70;45.00;;;;;;5071717;28;19931;-67
2024/01/27 04:57:24;;;;;;;;;;;16.70;45.10;;;;;;5071576;28;20326;-68
2024/01/27 04:59:50;;;;;;;;;;;16.70;45.00;;;;;;5104227;28;19924;-67
2024/01/27 05:02:15;;;;;;;;;;;16.70;45.10;;;;;;5103794;28;19920;-67
2024/01/27 05:04:41;;;;;;;;;;;16.70;45.10;;;;;;5104199;28;19920;-68
2024/01/27 05:07:06;;;;;;;;;;;16.70;45.10;;;;;;5074126;28;20287;-67
2024/01/27 05:09:33;;;;;;;;;;;16.70;45.10;;;;;;5074790;28;20019;-69
2024/01/27 05:11:59;;;;;;;;;;;16.70;45.10;;;;;;5073205;28;19924;-67
2024/01/27 05:14:25;;;;;;;;;;;16.70;45.10;;;;;;5074816;28;19927;-68
2024/01/27 05:16:50;;;;;;;;;;;16.70;45.10;;;;;;5074754;28;20402;-68
2024/01/27 05:19:17;;;;;;;;;;;16.70;45.10;;;;;;5074530;28;20360;-67
2024/01/27 05:21:43;;;;;;;;;;;16.70;45.00;;;;;;5074746;28;19924;-67
2024/01/27 05:24:09;;;;;;;;;;;16.70;45.00;;;;;;5074591;28;20376;-69
2024/01/27 05:26:38;;;;;;;;;;;16.70;45.00;;;;;;5073043;28;19931;-68
2024/01/27 05:29:03;;;;;;;;;;;16.70;45.00;;;;;;5107012;28;19924;-67
2024/01/27 05:31:29;;;;;;;;;;;16.70;45.10;;;;;;5072723;28;20298;-67
2024/01/27 05:33:55;;;;;;;;;;;16.60;45.00;;;;;;5107397;28;19924;-67
2024/01/27 05:36:23;;;;;;;;;;;16.60;45.00;;;;;;5074694;28;20278;-68
2024/01/27 05:38:48;;;;;;;;;;;16.60;45.00;;;;;;5072852;28;19925;-67
2024/01/27 05:41:14;;;;;;;;;;;16.60;45.00;;;;;;5073695;28;19927;-67
2024/01/27 05:43:40;;;;;;;;;;;16.60;45.00;;;;;;5106959;28;20276;-67
2024/01/27 05:46:05;;;;;;;;;;;16.60;45.00;;;;;;5073841;28;19978;-67
2024/01/27 05:48:31;;;;;;;;;;;16.60;45.00;;;;;;5106984;28;19974;-68
2024/01/27 05:50:58;;;;;;;;;;;16.60;44.90;;;;;;5073718;28;19974;-67
2024/01/27 05:53:26;;;;;;;;;;;16.60;44.90;;;;;;5106557;28;19924;-67
2024/01/27 05:55:54;;;;;;;;;;;16.60;44.90;;;;;;5073039;28;20277;-67
2024/01/27 05:58:21;;;;;;;;;;;16.60;44.90;;;;;;5072663;28;19920;-67
2024/01/27 06:00:50;;;;;;;;;;;16.60;44.90;;;;;;5106923;28;19926;-67
2024/01/27 06:03:16;;;;;;;;;;;16.60;44.80;;;;;;5056430;28;19936;-68
2024/01/27 06:05:42;;;;;;;;;;;16.60;44.90;;;;;;5072413;28;19920;-67
2024/01/27 06:08:08;;;;;;;;;;;16.60;44.90;;;;;;5072364;28;19927;-68
2024/01/27 06:10:33;;;;;;;;;;;16.60;44.90;;;;;;5072556;28;20292;-67
2024/01/27 06:12:59;;;;;;;;;;;16.60;44.90;;;;;;5073392;28;20407;-67
2024/01/27 06:15:25;;;;;;;;;;;16.60;44.90;;;;;;5106242;28;19927;-68
2024/01/27 06:17:50;;;;;;;;;;;16.50;44.90;;;;;;5106243;28;19920;-67
2024/01/27 06:20:18;;;;;;;;;;;16.60;44.90;;;;;;5073598;28;19920;-67
2024/01/27 06:22:44;;;;;;;;;;;16.60;44.90;;;;;;5073701;28;19971;-67
2024/01/27 06:25:10;;;;;;;;;;;16.50;44.80;;;;;;5073180;28;20402;-67
2024/01/27 06:27:37;;;;;;;;;;;16.50;44.90;;;;;;5105921;28;19920;-68
2024/01/27 06:30:03;;;;;;;;;;;16.50;44.90;;;;;;5105978;28;19932;-68
2024/01/27 06:32:29;;;;;;;;;;;16.50;44.90;;;;;;5072805;28;19931;-68
2024/01/27 06:34:55;;;;;;;;;;;16.50;44.90;;;;;;5073146;28;20283;-68
2024/01/27 06:37:20;;;;;;;;;;;16.50;44.90;;;;;;5073287;28;19920;-68
2024/01/27 06:39:46;;;;;;;;;;;16.50;44.90;;;;;;5105544;28;19921;-68
2024/01/27 06:42:11;;;;;;;;;;;16.50;44.90;;;;;;5105925;28;19921;-67
2024/01/27 06:44:37;;;;;;;;;;;16.40;44.80;;;;;;5105801;28;19927;-68
2024/01/27 06:47:02;;;;;;;;;;;16.40;44.90;;;;;;5105415;28;20288;-69
2024/01/27 06:49:28;;;;;;;;;;;16.40;44.80;;;;;;5072870;28;19925;-69
2024/01/27 06:51:53;;;;;;;;;;;16.40;44.90;;;;;;5105660;28;19927;-68
2024/01/27 06:54:19;;;;;;;;;;;16.40;44.80;;;;;;5105763;28;19920;-69
2024/01/27 06:56:44;;;;;;;;;;;16.40;44.80;;;;;;5071944;28;19927;-68
2024/01/27 06:59:10;;;;;;;;;;;16.40;44.80;;;;;;5072850;28;19927;-68
2024/01/27 07:01:35;;;;;;;;;;;16.40;44.80;;;;;;5055238;28;19920;-68
2024/01/27 07:04:01;;;;;;;;;;;16.40;44.70;;;;;;5105101;28;19920;-68
2024/01/27 07:06:26;;;;;;;;;;;16.40;44.80;;;;;;5071530;28;19920;-68
2024/01/27 07:08:52;;;;;;;;;;;16.40;44.80;;;;;;5072713;28;19927;-67
2024/01/27 07:11:17;;;;;;;;;;;16.40;44.80;;;;;;5072407;28;20388;-68
2024/01/27 07:13:43;;;;;;;;;;;16.40;44.80;;;;;;5105034;28;20148;-68
2024/01/27 07:16:08;;;;;;;;;;;16.40;44.80;;;;;;5071430;28;19928;-67
2024/01/27 07:18:35;;;;;;;;;;;16.40;44.80;;;;;;5105454;28;19924;-67
2024/01/27 07:21:01;;;;;;;;;;;16.40;44.80;;;;;;5104970;28;20035;-69
2024/01/27 07:23:26;;;;;;;;;;;16.40;44.80;;;;;;5072409;28;20291;-68
2024/01/27 07:25:52;;;;;;;;;;;16.40;44.70;;;;;;5072077;28;19926;-68
2024/01/27 07:28:18;;;;;;;;;;;16.40;44.70;;;;;;5104479;28;19924;-67
2024/01/27 07:30:44;;;;;;;;;;;16.40;45.50;;;;;;5072387;28;20388;-67
2024/01/27 07:33:09;;;;;;;;;;;16.30;44.70;;;;;;5070827;28;19980;-67
2024/01/27 07:35:35;;;;;;;;;;;16.30;44.80;;;;;;5104586;28;20042;-67
2024/01/27 07:38:03;;;;;;;;;;;16.30;44.70;;;;;;5071723;28;19920;-67
2024/01/27 07:40:29;;;;;;;;;;;16.30;44.80;;;;;;5071862;28;19930;-68
2024/01/27 07:42:54;;;;;;;;;;;16.30;44.70;;;;;;5070673;28;19921;-67
2024/01/27 07:45:20;;;;;;;;;;;16.30;44.70;;;;;;5070364;28;19930;-67
2024/01/27 07:47:45;;;;;;;;;;;16.30;44.80;;;;;;5104201;28;20339;-67
2024/01/27 07:50:11;;;;;;;;;;;16.40;44.80;;;;;;5103844;28;20250;-67
2024/01/27 07:52:37;;;;;;;;;;;16.30;44.70;;;;;;5070289;28;19928;-67
2024/01/27 07:55:02;;;;;;;;;;;16.30;44.70;;;;;;5103961;28;19943;-68
2024/01/27 07:57:28;;;;;;;;;;;16.30;44.60;;;;;;5070028;28;19994;-67
2024/01/27 07:59:54;;;;;;;;;;;16.30;44.70;;;;;;5104111;28;20383;-68
2024/01/27 08:02:19;;;;;;;;;;;16.30;44.70;;;;;;5071723;28;19927;-68
2024/01/27 08:04:45;;;;;;;;;;;16.30;44.70;;;;;;5070222;28;19928;-67
2024/01/27 08:07:11;;;;;;;;;;;16.30;44.70;;;;;;5103499;28;20394;-68
2024/01/27 08:09:37;;;;;;;;;;;16.30;44.60;;;;;;5103936;28;20015;-68
2024/01/27 08:12:03;;;;;;;;;;;16.30;44.70;;;;;;5104261;28;20376;-68
2024/01/27 08:14:29;;;;;;;;;;;16.30;44.70;;;;;;5070136;28;19924;-68
2024/01/27 08:16:56;;;;;;;;;;;16.30;44.70;;;;;;5104264;28;20000;-68
2024/01/27 08:19:21;;;;;;;;;;;16.30;44.60;;;;;;5103825;28;19920;-68
2024/01/27 08:21:47;;;;;;;;;;;16.30;44.60;;;;;;5071292;28;19970;-67
2024/01/27 08:24:13;;;;;;;;;;;16.30;44.60;;;;;;5103963;28;19982;-68
2024/01/27 08:26:39;;;;;;;;;;;16.20;44.60;;;;;;5069834;28;19925;-68
2024/01/27 08:29:04;;;;;;;;;;;16.30;44.60;;;;;;5052805;28;19932;-68
2024/01/27 08:31:30;;;;;;;;;;;16.20;44.60;;;;;;5069823;28;19932;-68
2024/01/27 08:33:55;;;;;;;;;;;16.20;44.60;;;;;;5071436;28;20283;-68
2024/01/27 08:36:21;;;;;;;;;;;16.20;44.50;;;;;;5071524;28;19928;-68
2024/01/27 08:38:46;;;;;;;;;;;16.20;44.50;;;;;;5070707;28;19927;-67
2024/01/27 08:41:12;;;;;;;;;;;16.20;44.60;;;;;;5075607;28;20253;-68
2024/01/27 08:43:37;;;;;;;;;;;16.20;44.60;;;;;;5075067;28;20247;-68
2024/01/27 08:46:03;;;;;;;;;;;16.20;44.50;;;;;;5107790;28;19920;-68
2024/01/27 08:48:28;;;;;;;;;;;16.20;44.50;;;;;;5073364;28;19924;-68
2024/01/27 08:50:54;;;;;;;;;;;16.20;44.60;;;;;;5074700;28;20051;-69
2024/01/27 08:53:19;;;;;;;;;;;16.20;44.60;;;;;;5075107;28;20413;-68
2024/01/27 08:55:45;;;;;;;;;;;16.20;44.60;;;;;;5107816;28;20015;-68
2024/01/27 08:58:10;;;;;;;;;;;16.20;44.60;;;;;;5107344;28;20012;-67
2024/01/27 09:00:36;;;;;;;;;;;16.20;44.60;;;;;;5107453;28;19920;-68
2024/01/27 09:03:03;;;;;;;;;;;16.20;44.60;;;;;;5107480;28;19927;-68
2024/01/27 09:05:28;;;;;;;;;;;16.20;44.60;;;;;;5074379;28;20395;-68
2024/01/27 09:07:54;;;;;;;;;;;16.20;44.60;;;;;;5106806;28;19999;-68
2024/01/27 09:10:19;;;;;;;;;;;16.20;44.60;;;;;;5074572;28;19932;-67
2024/01/27 09:12:45;;;;;;;;;;;16.20;44.60;;;;;;5074551;28;19925;-68
2024/01/27 09:15:11;;;;;;;;;;;16.20;44.60;;;;;;5107318;28;19925;-68
2024/01/27 09:17:36;;;;;;;;;;;16.20;44.60;;;;;;5074473;28;19921;-68
2024/01/27 09:20:02;;;;;;;;;;;16.20;44.70;;;;;;5074672;28;19974;-69
2024/01/27 09:22:31;;;;;;;;;;;16.20;44.70;;;;;;5073136;28;20280;-68
2024/01/27 09:24:56;;;;;;;;;;;16.10;44.60;;;;;;5074387;28;20011;-69
2024/01/27 09:27:22;;;;;;;;;;;16.20;44.70;;;;;;5073912;28;19966;-68
2024/01/27 09:29:47;;;;;;;;;;;16.10;44.60;;;;;;5106657;28;19956;-67
2024/01/27 09:32:13;;;;;;;;;;;16.20;44.70;;;;;;5074050;28;20406;-69
2024/01/27 09:34:38;;;;;;;;;;;16.20;44.70;;;;;;5106885;28;20011;-69
2024/01/27 09:37:05;;;;;;;;;;;16.10;44.60;;;;;;5073726;28;19924;-68
2024/01/27 09:39:30;;;;;;;;;;;16.20;44.70;;;;;;5074021;28;19935;-68
2024/01/27 09:41:57;;;;;;;;;;;16.20;44.60;;;;;;5106640;28;19920;-68
2024/01/27 09:44:23;;;;;;;;;;;16.20;44.60;;;;;;5106439;28;19927;-70
2024/01/27 09:46:55;;;;;;;;;;;16.20;44.70;;;;;;5106492;28;19925;-69
2024/01/27 09:49:21;;;;;;;;;;;16.10;44.60;;;;;;5106258;28;19978;-70
2024/01/27 09:51:46;;;;;;;;;;;16.20;44.70;;;;;;5105300;28;19956;-71
2024/01/27 09:54:15;;;;;;;;;;;16.20;44.60;;;;;;5106857;28;19927;-69
2024/01/27 09:56:40;;;;;;;;;;;16.10;44.60;;;;;;5073317;28;19921;-68
2024/01/27 09:59:07;;;;;;;;;;;16.10;44.60;;;;;;5106007;28;20276;-69
2024/01/27 10:01:33;;;;;;;;;;;16.10;44.60;;;;;;5072453;28;19928;-69
2024/01/27 10:03:59;;;;;;;;;;;16.10;44.70;;;;;;5106558;28;19924;-69
2024/01/27 10:06:25;;;;;;;;;;;16.10;44.70;;;;;;5072265;28;20401;-69
2024/01/27 10:08:53;;;;;;;;;;;16.10;44.70;;;;;;5071895;28;19920;-69
2024/01/27 10:11:20;;;;;;;;;;;16.10;44.70;;;;;;5071763;28;19928;-69
2024/01/27 10:13:45;;;;;;;;;;;16.10;44.80;;;;;;5073569;28;20371;-69
2024/01/27 10:16:13;;;;;;;;;;;16.10;44.80;;;;;;5072931;28;19920;-69
2024/01/27 10:18:39;;;;;;;;;;;16.00;44.80;;;;;;5071518;28;19928;-69
2024/01/27 10:21:12;;;;;;;;;;;16.00;44.90;;;;;;5073154;28;20272;-68
2024/01/27 10:23:39;;;;;;;;;;;16.00;45.00;;;;;;5106134;28;19920;-69
2024/01/27 10:26:04;;;;;;;;;;;15.90;45.00;;;;;;5105934;28;20456;-68
2024/01/27 10:28:30;;;;;;;;;;;15.90;45.10;;;;;;5072589;28;19990;-68
2024/01/27 10:31:07;;;;;;;;;;;15.90;45.10;;;;;;5105225;28;19931;-68
2024/01/27 10:33:32;;;;;;;;;;;15.90;45.20;;;;;;5105776;28;20383;-69
2024/01/27 10:35:58;;;;;;;;;;;15.80;45.20;;;;;;5105854;28;19924;-69
2024/01/27 10:38:33;;;;;;;;;;;15.80;45.30;;;;;;5071758;28;19920;-68
2024/01/27 10:40:59;;;;;;;;;;;15.80;45.40;;;;;;5105283;28;19925;-69
2024/01/27 10:43:24;;;;;;;;;;;15.80;45.50;;;;;;5105777;28;19924;-69
2024/01/27 10:45:50;;;;;;;;;;;15.70;45.40;;;;;;5072524;28;20011;-68
2024/01/27 10:48:16;;;;;;;;;;;15.70;45.50;;;;;;5071064;28;19967;-68
2024/01/27 10:50:41;;;;;;;;;;;15.70;45.50;;;;;;5072536;28;19932;-69
2024/01/27 10:53:09;;;;;;;;;;;15.80;45.60;;;;;;5072684;28;20003;-69
2024/01/27 10:55:35;;;;;;;;;;;15.70;45.60;;;;;;5105167;28;20443;-69
2024/01/27 10:58:02;;;;;;;;;;;15.70;45.60;;;;;;5105069;28;19920;-68
2024/01/27 11:00:30;;;;;;;;;;;15.70;45.60;;;;;;5071118;28;19921;-69
2024/01/27 11:02:58;;;;;;;;;;;15.70;45.60;;;;;;5105123;28;20433;-68
2024/01/27 11:05:24;;;;;;;;;;;15.70;45.70;;;;;;5072210;28;20339;-68
2024/01/27 11:07:51;;;;;;;;;;;15.70;45.70;;;;;;5104766;28;19920;-69
2024/01/27 11:10:16;;;;;;;;;;;15.70;45.80;;;;;;5070750;28;19932;-69
2024/01/27 11:12:42;;;;;;;;;;;15.70;46.50;;;;;;5105137;28;19925;-71
2024/01/27 11:15:07;;;;;;;;;;;15.60;45.80;;;;;;5105294;28;20269;-69
2024/01/27 11:17:41;;;;;;;;;;;15.60;45.80;;;;;;5070954;28;20400;-69
2024/01/27 11:20:08;;;;;;;;;;;15.60;45.80;;;;;;5071858;28;20368;-69
2024/01/27 11:22:37;;;;;;;;;;;15.60;45.80;;;;;;5105179;28;19927;-69
2024/01/27 11:25:18;;;;;;;;;;;15.60;45.80;;;;;;5105383;28;19920;-69
2024/01/27 11:27:45;;;;;;;;;;;15.60;45.90;;;;;;5071821;28;19931;-68
2024/01/27 11:30:28;;;;;;;;;;;15.60;45.90;;;;;;5104603;28;20394;-69
2024/01/27 11:32:56;;;;;;;;;;;15.60;45.90;;;;;;5103920;28;22447;-69
2024/01/27 11:35:22;;;;;;;;;;;15.60;45.90;;;;;;5105048;28;19920;-69
2024/01/27 11:37:48;;;;;;;;;;;15.60;45.90;;;;;;5071392;28;19924;-68
2024/01/27 11:40:13;;;;;;;;;;;15.60;45.90;;;;;;5104354;28;19920;-69
2024/01/27 11:43:01;;;;;;;;;;;15.60;45.90;;;;;;5072202;28;20372;-69
2024/01/27 11:45:28;;;;;;;;;;;15.60;46.00;;;;;;5071824;28;20330;-69
2024/01/27 11:47:55;;;;;;;;;;;15.60;46.00;;;;;;5103807;28;19927;-69
2024/01/27 11:50:21;;;;;;;;;;;15.60;46.00;;;;;;5071533;28;19951;-69
2024/01/27 11:52:46;;;;;;;;;;;15.50;46.00;;;;;;5070416;28;19920;-69
2024/01/27 11:55:14;;;;;;;;;;;15.60;46.00;;;;;;5071571;28;20411;-69
2024/01/27 11:57:42;;;;;;;;;;;15.60;46.10;;;;;;5104591;28;19928;-69
2024/01/27 12:00:09;;;;;;;;;;;15.50;46.00;;;;;;5071589;28;20260;-69
2024/01/27 12:02:35;;;;;;;;;;;15.50;46.00;;;;;;5104423;28;19921;-68
2024/01/27 12:05:01;;;;;;;;;;;15.50;46.00;;;;;;5070750;28;19920;-68
2024/01/27 12:07:27;;;;;;;;;;;15.50;46.00;;;;;;5071462;28;19967;-69
2024/01/27 12:09:52;;;;;;;;;;;15.50;46.10;;;;;;5071113;28;19925;-68
2024/01/27 12:12:18;;;;;;;;;;;15.60;46.10;;;;;;5103859;28;20011;-69
2024/01/27 12:14:45;;;;;;;;;;;15.50;46.00;;;;;;5073609;28;19927;-69
2024/01/27 12:17:11;;;;;;;;;;;15.50;46.10;;;;;;5075611;28;20260;-68
2024/01/27 12:19:37;;;;;;;;;;;15.50;46.10;;;;;;5075232;28;19920;-70
2024/01/27 12:22:03;;;;;;;;;;;15.50;46.10;;;;;;5108250;28;19920;-69
2024/01/27 12:24:29;;;;;;;;;;;15.50;46.20;;;;;;5108063;28;19927;-69
2024/01/27 12:26:57;;;;;;;;;;;15.50;46.10;;;;;;5074754;28;19921;-70
2024/01/27 12:29:23;;;;;;;;;;;15.50;46.20;;;;;;5107529;28;19977;-69
2024/01/27 12:31:48;;;;;;;;;;;15.50;46.10;;;;;;5073665;28;20283;-68
2024/01/27 12:34:14;;;;;;;;;;;15.50;46.10;;;;;;5107929;28;20173;-69
2024/01/27 12:36:40;;;;;;;;;;;15.50;46.10;;;;;;5075179;28;19995;-68
2024/01/27 12:39:06;;;;;;;;;;;15.50;46.10;;;;;;5075106;28;19964;-69
2024/01/27 12:41:33;;;;;;;;;;;15.50;46.20;;;;;;5074994;28;19959;-69
2024/01/27 12:44:02;;;;;;;;;;;15.50;46.10;;;;;;5075094;28;19932;-69
2024/01/27 12:46:28;;;;;;;;;;;15.50;46.20;;;;;;5107521;28;19924;-69
2024/01/27 12:48:53;;;;;;;;;;;15.50;46.10;;;;;;5107563;28;19999;-69
2024/01/27 12:51:19;;;;;;;;;;;15.50;46.10;;;;;;5073567;28;19924;-69
2024/01/27 12:53:45;;;;;;;;;;;15.60;46.20;;;;;;5074890;28;19977;-69
2024/01/27 12:56:11;;;;;;;;;;;15.50;46.20;;;;;;5074839;28;20392;-69
2024/01/27 12:58:37;;;;;;;;;;;15.50;46.20;;;;;;5107668;28;20004;-70
2024/01/27 13:01:03;;;;;;;;;;;15.50;46.20;;;;;;5074417;28;19927;-69
2024/01/27 13:03:28;;;;;;;;;;;15.50;46.20;;;;;;5073806;28;20372;-69
2024/01/27 13:05:54;;;;;;;;;;;15.50;46.20;;;;;;5107350;28;19920;-69
2024/01/27 13:08:20;;;;;;;;;;;15.50;46.20;;;;;;5107519;28;19981;-69
2024/01/27 13:10:46;;;;;;;;;;;15.60;46.20;;;;;;5106876;28;19964;-69
2024/01/27 13:13:11;;;;;;;;;;;15.50;46.10;;;;;;5106737;28;19928;-69
2024/01/27 13:15:37;;;;;;;;;;;15.50;46.10;;;;;;5107385;28;19925;-69
2024/01/27 13:18:03;;;;;;;;;;;15.50;46.10;;;;;;5074760;28;20018;-69
2024/01/27 13:20:28;;;;;;;;;;;15.50;46.10;;;;;;5073860;28;19971;-68
2024/01/27 13:22:54;;;;;;;;;;;15.50;46.10;;;;;;5074791;28;19927;-68
2024/01/27 13:25:22;;;;;;;;;;;15.50;46.20;;;;;;5073614;28;20394;-69
2024/01/27 13:27:48;;;;;;;;;;;15.50;46.20;;;;;;5106526;28;19924;-69
2024/01/27 13:30:13;;;;;;;;;;;15.50;46.10;;;;;;5073394;28;19931;-69
2024/01/27 13:32:42;;;;;;;;;;;15.50;46.10;;;;;;5106385;28;20403;-69
2024/01/27 13:35:08;;;;;;;;;;;15.50;46.10;;;;;;5106487;28;20486;-69
2024/01/27 13:37:33;;;;;;;;;;;15.50;46.10;;;;;;5072388;28;20015;-68
2024/01/27 13:40:00;;;;;;;;;;;15.50;46.10;;;;;;5061711;28;19963;-69
2024/01/27 13:42:25;;;;;;;;;;;15.50;46.10;;;;;;5064704;28;19980;-69
2024/01/27 13:44:51;;;;;;;;;;;15.50;46.20;;;;;;5072345;28;20439;-69
2024/01/27 13:47:17;;;;;;;;;;;15.50;46.20;;;;;;5071563;28;20343;-68
2024/01/27 13:49:43;;;;;;;;;;;15.50;46.20;;;;;;5105208;28;19990;-69
2024/01/27 13:52:08;;;;;;;;;;;15.50;46.20;;;;;;5103178;28;19955;-69
2024/01/27 13:54:34;;;;;;;;;;;15.50;46.20;;;;;;5071988;28;19927;-69
2024/01/27 13:57:01;;;;;;;;;;;15.50;46.20;;;;;;5072399;28;19921;-68
2024/01/27 13:59:27;;;;;;;;;;;15.50;46.20;;;;;;5071997;28;20011;-69
2024/01/27 14:01:53;;;;;;;;;;;15.50;46.20;;;;;;5073344;28;20035;-69
2024/01/27 14:04:18;;;;;;;;;;;15.50;46.20;;;;;;5073048;28;20595;-68
2024/01/27 14:06:44;;;;;;;;;;;15.50;46.20;;;;;;5072276;28;19978;-68
2024/01/27 14:09:10;;;;;;;;;;;15.50;46.20;;;;;;5071644;28;19921;-68